Time;durP1;ratioP1;P1;durP2;ratioP2;P2;SDS_P1;SDS_P2;PMS_P1;PMS_P2;Temp;Humidity;BMP_temperature;BMP_pressure;BME280_temperature;BME280_humidity;BME280_pressure;Samples;Min_cycle;Max_cycle;Signal;HPM_P1;HPM_P2
2022/12/31 00:01:13;;;;;;;5.22;2.65;;;12.50;89.00;;;;;;5010575;28;20488;-75
2022/12/31 00:03:41;;;;;;;7.65;3.53;;;12.40;89.10;;;;;;5029006;28;20087;-74
2022/12/31 00:06:21;;;;;;;7.07;3.50;;;12.40;89.30;;;;;;4998661;28;20097;-74
2022/12/31 00:08:49;;;;;;;5.90;3.28;;;12.40;89.50;;;;;;5020205;28;20241;-74
2022/12/31 00:11:16;;;;;;;6.65;3.05;;;12.40;89.50;;;;;;5011932;28;20124;-75
2022/12/31 00:13:45;;;;;;;6.50;3.05;;;12.40;89.80;;;;;;5011648;28;20398;-75
2022/12/31 00:16:16;;;;;;;6.60;3.10;;;12.40;90.00;;;;;;5020442;28;20053;-74
2022/12/31 00:18:44;;;;;;;6.27;2.77;;;12.40;90.00;;;;;;5014455;28;20054;-75
2022/12/31 00:21:12;;;;;;;6.57;3.00;;;12.40;90.00;;;;;;5000579;28;20262;-75
2022/12/31 00:23:41;;;;;;;6.90;3.35;;;12.30;90.10;;;;;;5014755;28;20141;-75
2022/12/31 00:26:10;;;;;;;9.00;3.42;;;12.30;90.20;;;;;;5007216;28;20046;-74
2022/12/31 00:28:37;;;;;;;9.15;4.13;;;12.30;90.40;;;;;;5009148;28;20041;-74
2022/12/31 00:31:07;;;;;;;10.83;3.90;;;12.30;90.60;;;;;;5035234;28;20571;-75
2022/12/31 00:33:34;;;;;;;7.15;3.53;;;12.30;90.70;;;;;;5006051;28;20675;-75
2022/12/31 00:36:07;;;;;;;9.85;3.88;;;12.30;90.80;;;;;;5032669;28;20536;-75
2022/12/31 00:38:36;;;;;;;9.48;3.88;;;12.30;90.80;;;;;;5008447;28;20074;-74
2022/12/31 00:41:06;;;;;;;8.57;3.22;;;12.30;90.90;;;;;;5007555;28;20046;-74
2022/12/31 00:43:33;;;;;;;8.13;3.67;;;12.30;90.70;;;;;;4994692;28;20054;-74
2022/12/31 00:46:01;;;;;;;8.10;4.18;;;12.30;90.80;;;;;;5017711;28;20268;-74
2022/12/31 00:48:28;;;;;;;6.95;3.50;;;12.30;90.90;;;;;;5029586;28;20046;-75
2022/12/31 00:50:56;;;;;;;7.80;3.53;;;12.30;90.90;;;;;;5015659;28;20141;-74
2022/12/31 00:53:25;;;;;;;8.52;3.38;;;12.30;91.00;;;;;;5000228;28;20049;-75
2022/12/31 00:55:58;;;;;;;8.03;3.37;;;12.30;90.90;;;;;;5027215;28;20970;-74
2022/12/31 00:58:27;;;;;;;5.80;3.30;;;12.30;90.90;;;;;;5014656;28;20352;-74
2022/12/31 01:00:55;;;;;;;7.97;3.08;;;12.30;90.80;;;;;;5014270;28;20054;-74
2022/12/31 01:03:23;;;;;;;5.97;2.95;;;12.30;90.80;;;;;;5032005;28;20046;-74
2022/12/31 01:05:50;;;;;;;7.68;3.25;;;12.30;90.80;;;;;;5015479;28;20070;-75
2022/12/31 01:08:17;;;;;;;6.57;3.30;;;12.30;90.80;;;;;;5007984;28;20467;-75
2022/12/31 01:13:35;;;;;;;6.97;2.70;;;12.30;90.80;;;;;;5040267;28;20042;-75
2022/12/31 01:16:07;;;;;;;7.70;3.20;;;12.30;90.70;;;;;;5039727;28;20157;-74
2022/12/31 01:18:34;;;;;;;7.55;2.97;;;12.30;90.80;;;;;;5005263;28;20049;-75
2022/12/31 01:21:03;;;;;;;6.00;2.83;;;12.30;90.70;;;;;;5038776;28;20663;-75
2022/12/31 01:23:30;;;;;;;8.13;3.05;;;12.30;90.70;;;;;;5028720;28;20252;-74
2022/12/31 01:26:00;;;;;;;6.55;2.80;;;12.30;90.80;;;;;;5037408;28;20063;-75
2022/12/31 01:28:27;;;;;;;5.60;2.17;;;12.30;90.80;;;;;;5030287;28;20124;-76
2022/12/31 01:30:56;;;;;;;5.95;2.70;;;12.30;90.70;;;;;;5012208;28;20077;-74
2022/12/31 01:33:23;;;;;;;6.27;2.80;;;12.30;90.80;;;;;;5043994;28;20184;-75
2022/12/31 01:35:52;;;;;;;4.63;2.53;;;12.30;90.60;;;;;;5020453;28;20280;-75
2022/12/31 01:38:19;;;;;;;6.30;2.63;;;12.30;90.60;;;;;;5018527;28;20132;-75
2022/12/31 01:40:46;;;;;;;5.97;2.53;;;12.30;90.60;;;;;;5013711;28;20853;-75
2022/12/31 01:43:16;;;;;;;6.78;2.78;;;12.30;90.50;;;;;;5017694;28;20499;-74
2022/12/31 01:45:45;;;;;;;6.23;2.50;;;12.30;90.50;;;;;;5022115;28;20460;-75
2022/12/31 01:48:20;;;;;;;5.97;2.55;;;12.30;90.40;;;;;;5035252;28;20356;-74
2022/12/31 01:50:48;;;;;;;5.60;2.30;;;12.30;90.30;;;;;;5020537;28;20597;-75
2022/12/31 01:53:17;;;;;;;5.82;2.20;;;12.30;90.40;;;;;;5049690;28;20050;-75
2022/12/31 01:55:49;;;;;;;5.28;2.10;;;12.30;90.40;;;;;;5027899;28;20060;-74
2022/12/31 01:58:18;;;;;;;5.10;2.30;;;12.30;90.40;;;;;;5023741;28;20125;-74
2022/12/31 02:00:46;;;;;;;5.75;2.20;;;12.30;90.50;;;;;;5032109;28;20372;-75
2022/12/31 02:03:15;;;;;;;4.65;2.20;;;12.30;90.40;;;;;;5015020;28;20050;-74
2022/12/31 02:05:46;;;;;;;6.97;2.35;;;12.30;90.50;;;;;;5038543;28;20090;-74
2022/12/31 02:08:14;;;;;;;4.25;1.90;;;12.20;90.50;;;;;;5017728;28;20488;-75
2022/12/31 02:10:42;;;;;;;4.40;1.73;;;12.20;90.50;;;;;;5015867;28;20045;-76
2022/12/31 02:13:10;;;;;;;4.57;2.00;;;12.20;90.50;;;;;;5012508;28;20266;-75
2022/12/31 02:15:47;;;;;;;5.53;2.08;;;12.20;90.60;;;;;;5001335;28;20060;-74
2022/12/31 02:18:24;;;;;;;4.30;1.70;;;12.20;90.60;;;;;;5011355;28;20420;-75
2022/12/31 02:21:19;;;;;;;4.18;1.50;;;12.20;90.60;;;;;;5015137;28;20053;-75
2022/12/31 02:24:09;;;;;;;3.93;1.60;;;12.20;90.50;;;;;;5013393;28;20069;-75
2022/12/31 02:27:03;;;;;;;4.63;1.60;;;12.20;90.40;;;;;;5042190;28;20368;-75
2022/12/31 02:30:13;;;;;;;4.78;1.40;;;12.20;90.40;;;;;;5014786;28;20836;-75
2022/12/31 02:33:02;;;;;;;4.18;1.25;;;12.10;90.50;;;;;;5029719;28;20100;-76
2022/12/31 02:35:37;;;;;;;4.07;1.40;;;12.20;90.50;;;;;;5015696;28;20129;-75
2022/12/31 02:38:08;;;;;;;4.23;1.40;;;12.10;90.40;;;;;;5034427;28;20053;-74
2022/12/31 02:40:39;;;;;;;4.60;1.20;;;12.10;90.40;;;;;;5024252;28;20256;-75
2022/12/31 02:43:06;;;;;;;3.55;0.90;;;12.10;90.20;;;;;;5040268;28;20689;-76
2022/12/31 02:45:37;;;;;;;3.83;0.80;;;12.10;90.20;;;;;;5018327;28;20053;-75
2022/12/31 02:48:17;;;;;;;3.08;0.40;;;12.10;90.20;;;;;;5015923;28;20646;-74
2022/12/31 02:50:55;;;;;;;2.53;0.43;;;12.10;90.00;;;;;;5007034;28;20046;-74
2022/12/31 02:53:36;;;;;;;2.67;0.43;;;12.00;89.80;;;;;;5042317;28;20283;-75
2022/12/31 02:56:10;;;;;;;3.88;0.30;;;12.00;89.60;;;;;;5039246;28;20415;-75
2022/12/31 03:07:10;;;;;;;2.97;0.40;;;11.90;88.90;;;;;;5019599;28;20280;-75
2022/12/31 03:09:39;;;;;;;2.92;0.40;;;11.90;88.90;;;;;;5019262;28;20050;-75
2022/12/31 03:14:55;;;;;;;3.00;0.60;;;11.90;89.00;;;;;;4995424;28;20057;-75
2022/12/31 03:17:22;;;;;;;2.87;0.50;;;11.80;89.20;;;;;;5030015;28;20256;-76
2022/12/31 03:22:40;;;;;;;3.42;0.50;;;11.80;89.30;;;;;;5017548;28;20041;-75
2022/12/31 03:27:56;;;;;;;3.13;0.50;;;11.70;89.50;;;;;;4995669;28;20564;-75
2022/12/31 03:30:24;;;;;;;4.13;0.70;;;11.70;89.50;;;;;;5023047;28;20053;-76
2022/12/31 03:32:52;;;;;;;2.33;0.50;;;11.70;89.60;;;;;;5013937;28;20276;-75
2022/12/31 03:35:21;;;;;;;2.67;0.60;;;11.70;89.70;;;;;;5009701;28;20109;-75
2022/12/31 03:37:50;;;;;;;3.67;0.70;;;11.70;89.80;;;;;;5020150;28;20060;-75
2022/12/31 03:40:19;;;;;;;3.58;0.70;;;11.70;89.80;;;;;;5037489;28;20113;-74
2022/12/31 03:42:46;;;;;;;4.07;1.00;;;11.70;90.00;;;;;;5014050;28;20058;-74
2022/12/31 03:45:15;;;;;;;5.47;1.10;;;11.70;90.00;;;;;;5037280;28;20399;-75
2022/12/31 03:47:42;;;;;;;4.55;1.10;;;11.70;90.10;;;;;;5016434;28;20045;-74
2022/12/31 03:50:11;;;;;;;4.78;1.20;;;11.70;90.30;;;;;;5008683;28;20050;-74
2022/12/31 03:52:40;;;;;;;3.72;1.00;;;11.70;90.30;;;;;;5011735;28;20368;-75
2022/12/31 03:55:08;;;;;;;5.03;1.20;;;11.70;90.40;;;;;;5010064;28;20173;-75
2022/12/31 03:57:35;;;;;;;5.35;1.20;;;11.70;90.50;;;;;;5024251;28;20330;-74
2022/12/31 04:00:02;;;;;;;3.60;1.10;;;11.70;90.60;;;;;;5008248;28;20042;-75
2022/12/31 04:02:31;;;;;;;4.50;1.10;;;11.70;90.60;;;;;;5029088;28;20590;-75
2022/12/31 04:04:59;;;;;;;4.20;1.08;;;11.70;90.70;;;;;;5021458;28;20058;-75
2022/12/31 04:07:26;;;;;;;3.50;1.13;;;11.70;90.80;;;;;;5034293;28;20082;-75
2022/12/31 04:09:54;;;;;;;4.25;1.40;;;11.70;90.90;;;;;;5009185;28;21505;-75
2022/12/31 04:12:21;;;;;;;5.63;1.60;;;11.70;90.80;;;;;;5010590;28;20053;-75
2022/12/31 04:14:49;;;;;;;3.70;1.50;;;11.70;91.00;;;;;;5024653;28;20420;-75
2022/12/31 04:17:16;;;;;;;4.97;1.50;;;11.70;91.00;;;;;;5039753;28;20308;-75
2022/12/31 04:19:44;;;;;;;3.97;1.30;;;11.70;90.90;;;;;;5033616;28;20081;-74
2022/12/31 04:22:11;;;;;;;4.95;1.50;;;11.70;91.10;;;;;;5005500;28;20719;-75
2022/12/31 04:24:38;;;;;;;6.00;1.45;;;11.70;91.20;;;;;;5036833;28;20133;-75
2022/12/31 04:27:07;;;;;;;3.83;1.40;;;11.70;91.00;;;;;;5010936;28;20507;-74
2022/12/31 04:29:34;;;;;;;4.70;1.40;;;11.80;91.10;;;;;;5028338;28;20530;-75
2022/12/31 04:32:02;;;;;;;5.73;1.50;;;11.80;91.00;;;;;;5030547;28;20045;-75
2022/12/31 04:34:29;;;;;;;4.28;1.23;;;11.80;90.90;;;;;;5013988;28;20269;-75
2022/12/31 04:36:56;;;;;;;4.13;1.35;;;11.80;91.00;;;;;;5038744;28;20073;-75
2022/12/31 04:39:24;;;;;;;4.18;1.10;;;11.80;90.90;;;;;;5011870;28;20100;-75
2022/12/31 04:41:51;;;;;;;5.45;1.20;;;11.80;90.90;;;;;;5012972;28;20137;-74
2022/12/31 04:44:20;;;;;;;5.10;1.10;;;11.70;90.90;;;;;;5031858;28;20203;-74
2022/12/31 04:46:49;;;;;;;3.95;0.95;;;11.70;90.80;;;;;;5023367;28;20681;-74
2022/12/31 04:49:16;;;;;;;4.22;0.90;;;11.70;90.90;;;;;;5036661;28;20054;-75
2022/12/31 04:51:43;;;;;;;5.15;1.08;;;11.70;90.90;;;;;;4996596;28;20628;-75
2022/12/31 04:54:14;;;;;;;4.53;1.08;;;11.70;90.90;;;;;;5019855;28;20124;-74
2022/12/31 04:56:41;;;;;;;4.23;0.70;;;11.70;90.90;;;;;;5032507;28;20046;-74
2022/12/31 04:59:10;;;;;;;4.45;0.98;;;11.70;90.90;;;;;;5031097;28;20334;-75
2022/12/31 05:01:40;;;;;;;5.53;1.08;;;11.70;90.80;;;;;;5024376;28;20050;-74
2022/12/31 05:04:06;;;;;;;5.03;1.17;;;11.70;90.90;;;;;;5007912;28;20136;-75
2022/12/31 05:06:33;;;;;;;5.07;0.90;;;11.70;90.90;;;;;;5021219;28;20199;-75
2022/12/31 05:09:01;;;;;;;5.30;1.20;;;11.70;90.90;;;;;;5008799;28;20144;-75
2022/12/31 05:11:30;;;;;;;5.45;1.02;;;11.70;91.00;;;;;;5034552;28;21095;-75
2022/12/31 05:13:57;;;;;;;3.72;1.10;;;11.70;91.00;;;;;;5026378;28;20057;-75
2022/12/31 05:16:24;;;;;;;3.50;1.00;;;11.70;91.00;;;;;;5037022;28;20042;-74
2022/12/31 05:18:52;;;;;;;4.05;1.15;;;11.70;91.10;;;;;;5023487;28;20050;-75
2022/12/31 05:21:22;;;;;;;4.13;1.13;;;11.70;91.10;;;;;;5033112;28;20061;-75
2022/12/31 05:23:49;;;;;;;3.95;0.90;;;11.70;91.20;;;;;;4997704;28;20250;-75
2022/12/31 05:26:17;;;;;;;4.55;1.10;;;11.70;91.10;;;;;;5017920;28;20060;-74
2022/12/31 05:28:44;;;;;;;5.43;1.10;;;11.60;91.10;;;;;;5035630;28;20114;-75
2022/12/31 05:31:13;;;;;;;4.35;1.10;;;11.70;91.20;;;;;;5013749;28;20141;-74
2022/12/31 05:33:40;;;;;;;3.50;1.00;;;11.60;91.20;;;;;;5013154;28;20137;-76
2022/12/31 05:36:09;;;;;;;3.33;0.95;;;11.60;91.20;;;;;;5016919;28;20328;-75
2022/12/31 05:38:37;;;;;;;3.67;0.88;;;11.60;91.30;;;;;;5043393;28;20080;-75
2022/12/31 05:41:07;;;;;;;5.25;1.30;;;11.60;91.30;;;;;;5018761;28;20046;-74
2022/12/31 05:43:35;;;;;;;3.70;1.30;;;11.60;91.30;;;;;;5013799;28;20108;-75
2022/12/31 05:46:03;;;;;;;5.30;1.57;;;11.70;91.40;;;;;;5016146;28;20077;-74
2022/12/31 05:48:31;;;;;;;6.25;2.10;;;11.70;91.40;;;;;;5024303;28;20367;-75
2022/12/31 05:50:58;;;;;;;4.95;1.90;;;11.70;91.30;;;;;;5012976;28;20057;-75
2022/12/31 05:53:26;;;;;;;6.97;2.40;;;11.60;91.40;;;;;;5013466;28;20082;-75
2022/12/31 05:55:55;;;;;;;4.38;2.15;;;11.60;91.40;;;;;;5031174;28;21144;-74
2022/12/31 05:58:22;;;;;;;3.57;1.57;;;11.60;91.50;;;;;;5021761;28;20165;-74
2022/12/31 06:00:49;;;;;;;4.30;2.00;;;11.70;91.50;;;;;;5008143;28;20273;-75
2022/12/31 06:03:16;;;;;;;5.05;1.92;;;11.70;91.50;;;;;;5005843;28;20141;-75
2022/12/31 06:05:45;;;;;;;4.63;1.83;;;11.70;91.40;;;;;;5041464;28;20125;-75
2022/12/31 06:08:12;;;;;;;3.97;1.90;;;11.70;91.30;;;;;;5011850;28;20062;-75
2022/12/31 06:10:40;;;;;;;4.53;1.90;;;11.70;91.40;;;;;;5035088;28;20057;-75
2022/12/31 06:13:08;;;;;;;3.80;1.52;;;11.70;91.30;;;;;;5015733;28;20341;-75
2022/12/31 06:15:39;;;;;;;5.93;1.58;;;11.60;91.40;;;;;;5040155;28;20097;-74
2022/12/31 06:18:07;;;;;;;3.75;1.27;;;11.60;91.30;;;;;;5009012;28;20064;-75
2022/12/31 06:20:36;;;;;;;3.35;1.17;;;11.70;91.20;;;;;;5008779;28;20058;-75
2022/12/31 06:23:05;;;;;;;4.20;1.47;;;11.60;91.20;;;;;;5018636;28;20046;-74
2022/12/31 06:25:32;;;;;;;4.05;1.20;;;11.60;91.30;;;;;;5020916;28;20727;-75
2022/12/31 06:28:00;;;;;;;3.28;1.10;;;11.60;91.20;;;;;;5015941;28;20056;-75
2022/12/31 06:30:29;;;;;;;3.83;1.30;;;11.50;91.40;;;;;;5013122;28;20125;-75
2022/12/31 06:32:56;;;;;;;3.47;1.33;;;11.50;91.40;;;;;;5041619;28;20049;-75
2022/12/31 06:35:24;;;;;;;4.00;1.10;;;11.60;91.40;;;;;;5015270;28;20947;-75
2022/12/31 06:37:52;;;;;;;4.10;1.50;;;11.50;91.30;;;;;;5033557;28;20368;-74
2022/12/31 06:40:19;;;;;;;3.08;0.88;;;11.50;91.50;;;;;;5010988;28;20070;-75
2022/12/31 06:42:47;;;;;;;2.90;1.20;;;11.50;91.50;;;;;;5042145;28;20092;-75
2022/12/31 06:45:17;;;;;;;2.80;0.60;;;11.50;91.50;;;;;;5013728;28;22444;-74
2022/12/31 06:47:44;;;;;;;3.00;0.90;;;11.50;91.60;;;;;;5027805;28;20065;-75
2022/12/31 06:50:13;;;;;;;3.53;1.00;;;11.50;91.50;;;;;;5029086;28;20264;-75
2022/12/31 06:52:43;;;;;;;4.47;0.77;;;11.50;91.60;;;;;;5020930;28;20512;-75
2022/12/31 06:55:12;;;;;;;2.70;0.90;;;11.50;91.70;;;;;;5022751;28;20497;-75
2022/12/31 06:57:40;;;;;;;2.75;1.10;;;11.50;91.70;;;;;;4997530;28;20057;-75
2022/12/31 07:00:08;;;;;;;3.30;1.20;;;11.50;91.70;;;;;;5009354;28;20104;-75
2022/12/31 07:03:02;;;;;;;2.58;0.90;;;11.50;91.70;;;;;;5043990;28;20352;-75
2022/12/31 07:05:44;;;;;;;4.38;0.90;;;11.50;91.80;;;;;;5018540;28;20082;-75
2022/12/31 07:08:33;;;;;;;2.97;1.17;;;11.50;91.80;;;;;;5035616;28;20056;-75
2022/12/31 07:11:07;;;;;;;2.50;0.82;;;11.50;91.90;;;;;;5023654;28;20046;-75
2022/12/31 07:13:59;;;;;;;2.60;0.80;;;11.50;91.90;;;;;;5028073;28;20546;-75
2022/12/31 07:16:44;;;;;;;2.75;0.80;;;11.50;92.00;;;;;;4995452;28;20250;-75
2022/12/31 07:19:22;;;;;;;3.10;1.00;;;11.50;92.10;;;;;;5001281;28;20114;-75
2022/12/31 07:21:53;;;;;;;2.70;0.80;;;11.50;92.00;;;;;;5045876;28;20531;-76
2022/12/31 07:24:20;;;;;;;3.50;1.30;;;11.50;92.00;;;;;;5018628;28;20056;-75
2022/12/31 07:27:00;;;;;;;3.23;1.10;;;11.40;92.00;;;;;;5005922;28;20131;-75
2022/12/31 07:29:41;;;;;;;3.22;1.00;;;11.50;92.20;;;;;;5024273;28;21185;-75
2022/12/31 07:32:16;;;;;;;3.63;1.02;;;11.50;92.20;;;;;;4996025;28;20042;-75
2022/12/31 07:34:54;;;;;;;3.92;1.30;;;11.50;92.20;;;;;;5026021;28;20701;-75
2022/12/31 07:37:33;;;;;;;3.83;1.40;;;11.40;92.20;;;;;;5017501;28;20093;-75
2022/12/31 07:40:08;;;;;;;3.03;1.03;;;11.50;92.30;;;;;;5028734;28;20135;-74
2022/12/31 07:42:44;;;;;;;3.95;1.13;;;11.50;92.30;;;;;;5009101;28;20252;-75
2022/12/31 07:45:18;;;;;;;3.22;1.02;;;11.50;92.40;;;;;;5007664;28;20530;-74
2022/12/31 07:47:48;;;;;;;3.47;1.10;;;11.50;92.50;;;;;;5015159;28;20050;-75
2022/12/31 07:50:18;;;;;;;2.80;1.00;;;11.50;92.50;;;;;;5030115;28;20570;-74
2022/12/31 07:52:46;;;;;;;2.73;0.97;;;11.50;92.60;;;;;;5012198;28;20148;-76
2022/12/31 07:55:13;;;;;;;3.13;1.00;;;11.50;92.70;;;;;;5031491;28;20287;-75
2022/12/31 07:57:51;;;;;;;3.55;1.02;;;11.50;92.70;;;;;;5029934;28;20134;-75
2022/12/31 08:00:19;;;;;;;2.40;0.77;;;11.50;92.70;;;;;;5018016;28;20132;-75
2022/12/31 08:03:05;;;;;;;3.25;0.90;;;11.50;92.70;;;;;;5029010;28;20050;-75
2022/12/31 08:05:44;;;;;;;2.80;0.93;;;11.50;92.90;;;;;;5021324;28;20583;-75
2022/12/31 08:08:23;;;;;;;3.83;1.45;;;11.50;92.80;;;;;;5017794;28;20262;-75
2022/12/31 08:11:03;;;;;;;3.45;1.20;;;11.50;92.90;;;;;;5024865;28;20085;-74
2022/12/31 08:13:30;;;;;;;3.80;1.10;;;11.60;92.80;;;;;;5006375;28;20052;-75
2022/12/31 08:15:59;;;;;;;4.00;1.40;;;11.50;92.90;;;;;;5010430;28;20045;-74
2022/12/31 08:18:27;;;;;;;3.30;1.40;;;11.60;93.00;;;;;;5028853;28;20165;-75
2022/12/31 08:21:08;;;;;;;4.68;1.70;;;11.60;93.00;;;;;;5007665;28;20813;-75
2022/12/31 08:23:42;;;;;;;3.83;1.40;;;11.60;93.00;;;;;;4988062;28;20047;-75
2022/12/31 08:26:23;;;;;;;4.05;1.55;;;11.70;93.10;;;;;;5019147;28;20136;-74
2022/12/31 08:29:01;;;;;;;3.83;1.90;;;11.70;93.20;;;;;;5015325;28;20058;-75
2022/12/31 08:31:36;;;;;;;4.30;1.80;;;11.70;93.20;;;;;;5011776;28;20956;-76
2022/12/31 08:34:10;;;;;;;3.55;1.48;;;11.70;93.30;;;;;;4989627;28;20262;-75
2022/12/31 08:36:50;;;;;;;3.90;1.55;;;11.70;93.30;;;;;;5026654;28;20139;-76
2022/12/31 08:39:27;;;;;;;4.07;1.80;;;11.80;93.50;;;;;;4990772;28;20692;-75
2022/12/31 08:41:56;;;;;;;4.47;1.77;;;11.80;93.60;;;;;;5012653;28;20054;-76
2022/12/31 08:44:32;;;;;;;4.30;2.00;;;11.90;93.70;;;;;;5042597;28;20140;-73
2022/12/31 08:47:11;;;;;;;4.40;1.80;;;11.90;94.00;;;;;;5008108;28;20257;-74
2022/12/31 08:49:39;;;;;;;4.07;1.98;;;11.90;94.10;;;;;;5016141;28;20061;-74
2022/12/31 08:52:15;;;;;;;4.28;1.92;;;12.00;94.30;;;;;;5021541;28;20060;-74
2022/12/31 08:54:43;;;;;;;4.47;2.00;;;12.10;94.30;;;;;;5027099;28;20057;-75
2022/12/31 08:57:21;;;;;;;3.90;1.80;;;12.10;94.40;;;;;;5003330;28;20073;-74
2022/12/31 08:59:56;;;;;;;4.10;1.88;;;12.20;94.40;;;;;;5033114;28;20281;-73
2022/12/31 09:02:39;;;;;;;5.10;2.17;;;12.20;94.40;;;;;;5029507;28;20107;-74
2022/12/31 09:05:17;;;;;;;3.95;2.00;;;12.30;94.60;;;;;;5025341;28;20058;-74
2022/12/31 09:07:56;;;;;;;4.78;1.85;;;12.50;94.50;;;;;;5014156;28;20079;-73
2022/12/31 09:10:29;;;;;;;4.00;1.60;;;12.50;94.50;;;;;;5014855;28;20456;-74
2022/12/31 09:13:09;;;;;;;4.28;1.60;;;12.50;94.50;;;;;;5024924;28;20269;-74
2022/12/31 09:15:42;;;;;;;3.25;1.20;;;12.50;94.40;;;;;;5030402;28;20076;-74
2022/12/31 09:18:13;;;;;;;3.83;1.42;;;12.60;94.30;;;;;;5028035;28;20848;-75
2022/12/31 09:20:41;;;;;;;3.13;1.30;;;12.60;94.20;;;;;;5035697;28;20054;-75
2022/12/31 09:23:10;;;;;;;4.07;1.33;;;12.70;94.20;;;;;;5038287;28;20132;-75
2022/12/31 09:25:47;;;;;;;4.15;1.20;;;12.70;94.20;;;;;;5021914;28;20357;-75
2022/12/31 09:28:18;;;;;;;5.72;2.60;;;12.70;94.00;;;;;;5006054;28;20128;-75
2022/12/31 09:30:58;;;;;;;7.00;4.05;;;12.80;94.00;;;;;;5031439;28;20147;-75
2022/12/31 09:33:36;;;;;;;3.08;0.85;;;12.80;93.80;;;;;;5030592;28;20069;-74
2022/12/31 09:36:07;;;;;;;3.00;0.70;;;12.90;93.50;;;;;;5031775;28;20042;-74
2022/12/31 09:38:51;;;;;;;2.75;0.60;;;12.90;93.30;;;;;;4993585;28;20293;-74
2022/12/31 09:41:47;;;;;;;3.50;0.60;;;12.90;93.20;;;;;;5026494;28;20049;-74
2022/12/31 09:45:02;;;;;;;2.00;0.40;;;13.00;92.90;;;;;;4993983;28;20129;-75
2022/12/31 09:48:04;;;;;;;2.03;0.35;;;13.00;92.40;;;;;;5021675;28;20050;-76
2022/12/31 09:50:51;;;;;;;2.00;0.50;;;13.00;92.20;;;;;;4998468;28;20052;-74
2022/12/31 09:53:47;;;;;;;2.78;0.40;;;13.10;91.70;;;;;;4990237;28;20250;-76
2022/12/31 09:56:22;;;;;;;2.13;0.30;;;13.10;91.60;;;;;;5029947;28;20054;-75
2022/12/31 09:59:01;;;;;;;1.77;0.43;;;13.10;91.30;;;;;;5007392;28;20057;-75
2022/12/31 10:01:59;;;;;;;2.78;0.50;;;13.10;91.10;;;;;;5022224;28;20599;-75
2022/12/31 10:04:44;;;;;;;2.93;0.60;;;13.20;90.90;;;;;;5012539;28;20524;-75
2022/12/31 10:07:23;;;;;;;3.33;0.60;;;13.20;90.90;;;;;;5017751;28;20269;-75
2022/12/31 10:10:00;;;;;;;4.03;0.80;;;13.20;90.90;;;;;;5022112;28;20062;-75
2022/12/31 10:12:59;;;;;;;2.15;0.50;;;13.30;90.80;;;;;;5032661;28;20432;-74
2022/12/31 10:15:58;;;;;;;2.83;0.50;;;13.30;90.30;;;;;;4990964;28;20073;-75
2022/12/31 10:18:39;;;;;;;3.00;0.40;;;13.30;90.10;;;;;;5023705;28;20411;-75
2022/12/31 10:21:37;;;;;;;4.28;0.50;;;13.40;89.80;;;;;;5027386;28;20321;-75
2022/12/31 10:24:43;;;;;;;3.40;0.40;;;13.50;89.50;;;;;;5015113;28;20127;-77
2022/12/31 10:27:41;;;;;;;3.95;0.80;;;13.50;89.20;;;;;;5009547;28;20137;-77
2022/12/31 10:30:15;;;;;;;2.83;0.50;;;13.50;89.20;;;;;;4988629;28;20050;-76
2022/12/31 10:32:43;;;;;;;2.73;0.50;;;13.50;89.00;;;;;;5017175;28;20050;-75
2022/12/31 10:35:23;;;;;;;3.15;0.60;;;13.50;89.10;;;;;;5008191;28;20408;-75
2022/12/31 10:37:55;;;;;;;3.08;0.50;;;13.60;88.70;;;;;;5012553;28;20530;-75
2022/12/31 10:40:33;;;;;;;3.63;0.68;;;13.60;88.70;;;;;;5032769;28;20053;-73
2022/12/31 10:43:30;;;;;;;3.97;0.85;;;13.60;88.70;;;;;;5028315;28;20164;-75
2022/12/31 10:46:25;;;;;;;3.23;0.70;;;13.60;88.80;;;;;;5007516;28;20750;-74
2022/12/31 10:49:31;;;;;;;3.28;0.70;;;13.60;88.80;;;;;;5021429;28;20260;-76
2022/12/31 10:52:28;;;;;;;3.88;0.95;;;13.70;88.60;;;;;;5037893;28;20171;-75
2022/12/31 10:55:35;;;;;;;2.95;0.55;;;13.70;88.50;;;;;;5037502;28;20773;-75
2022/12/31 10:58:33;;;;;;;4.10;0.88;;;13.70;88.50;;;;;;5031558;28;20057;-74
2022/12/31 11:01:09;;;;;;;4.83;1.20;;;13.70;88.70;;;;;;5018832;28;20173;-75
2022/12/31 11:04:03;;;;;;;5.35;1.10;;;13.70;88.70;;;;;;4994084;28;20265;-75
2022/12/31 11:07:09;;;;;;;4.78;1.20;;;13.70;89.10;;;;;;5030750;28;20050;-77
2022/12/31 11:10:17;;;;;;;3.03;0.65;;;13.80;89.10;;;;;;5011990;28;20551;-75
2022/12/31 11:13:18;;;;;;;4.93;0.63;;;13.90;89.40;;;;;;5002717;28;20534;-75
2022/12/31 11:16:03;;;;;;;4.27;0.93;;;13.90;89.50;;;;;;5031219;28;20133;-74
2022/12/31 11:18:43;;;;;;;4.13;0.70;;;13.90;89.80;;;;;;5012340;28;20242;-75
2022/12/31 11:21:36;;;;;;;4.15;0.77;;;13.90;90.00;;;;;;5055643;22;20135;-74
2022/12/31 11:24:09;;;;;;;5.00;1.00;;;13.70;90.30;;;;;;5050288;28;20578;-75
2022/12/31 11:26:51;;;;;;;3.78;0.80;;;13.70;90.50;;;;;;5047454;28;20131;-74
2022/12/31 11:29:37;;;;;;;2.73;0.70;;;13.70;90.80;;;;;;5043590;28;20051;-75
2022/12/31 11:32:20;;;;;;;3.17;0.70;;;13.70;91.00;;;;;;5066768;28;20291;-75
2022/12/31 11:35:29;;;;;;;4.95;1.08;;;13.60;91.10;;;;;;5063339;28;20049;-75
2022/12/31 11:38:09;;;;;;;4.10;0.95;;;13.60;91.20;;;;;;5048191;28;20184;-74
2022/12/31 11:40:54;;;;;;;9.88;4.40;;;13.60;91.50;;;;;;5066462;28;20203;-75
2022/12/31 11:43:26;;;;;;;7.73;3.27;;;13.60;91.50;;;;;;5057191;28;20151;-74
2022/12/31 11:46:09;;;;;;;8.52;3.30;;;13.60;91.70;;;;;;5055901;28;20347;-75
2022/12/31 11:48:43;;;;;;;8.77;3.25;;;13.60;91.70;;;;;;5043512;28;20125;-75
2022/12/31 11:51:32;;;;;;;6.93;3.00;;;13.70;91.70;;;;;;5054573;28;20048;-74
2022/12/31 11:54:37;;;;;;;9.38;5.47;;;13.70;91.70;;;;;;5053663;28;20053;-74
2022/12/31 11:57:16;;;;;;;10.87;5.90;;;13.70;91.70;;;;;;5044452;28;20052;-74
2022/12/31 11:59:43;;;;;;;6.82;3.30;;;13.70;91.70;;;;;;5059740;28;20284;-74
2022/12/31 12:02:24;;;;;;;4.45;2.10;;;13.80;91.60;;;;;;5057795;28;20045;-74
2022/12/31 12:04:52;;;;;;;6.22;1.70;;;13.90;91.50;;;;;;5056439;28;20059;-74
2022/12/31 12:07:20;;;;;;;4.38;1.80;;;13.90;91.40;;;;;;5067869;28;20146;-74
2022/12/31 12:09:48;;;;;;;4.67;1.30;;;13.90;91.30;;;;;;5064609;28;20445;-76
2022/12/31 12:12:15;;;;;;;3.83;1.35;;;13.90;91.20;;;;;;5058010;28;20738;-74
2022/12/31 12:14:45;;;;;;;5.28;1.20;;;13.90;91.20;;;;;;5038113;28;20660;-76
2022/12/31 12:17:17;;;;;;;3.55;1.13;;;14.00;90.60;;;;;;5040198;28;20648;-75
2022/12/31 12:19:45;;;;;;;3.65;1.15;;;14.10;90.50;;;;;;5044760;28;20053;-76
2022/12/31 12:22:20;;;;;;;4.27;1.23;;;14.10;90.10;;;;;;5062435;28;20711;-75
2022/12/31 12:24:55;;;;;;;4.68;1.13;;;14.20;89.90;;;;;;5064661;28;20256;-76
2022/12/31 12:27:24;;;;;;;3.03;0.65;;;14.20;89.70;;;;;;5045679;28;20669;-75
2022/12/31 12:29:51;;;;;;;3.10;0.77;;;14.20;89.50;;;;;;5056299;28;20050;-77
2022/12/31 12:32:21;;;;;;;3.10;0.60;;;14.20;89.00;;;;;;5070270;28;20128;-77
2022/12/31 12:34:48;;;;;;;3.77;0.70;;;14.20;88.60;;;;;;5035275;28;20470;-76
2022/12/31 12:37:35;;;;;;;3.17;0.70;;;14.20;88.20;;;;;;5048603;28;20760;-77
2022/12/31 12:40:08;;;;;;;3.75;0.70;;;14.30;87.90;;;;;;5051956;28;20054;-78
2022/12/31 12:42:35;;;;;;;3.10;0.77;;;14.30;87.50;;;;;;5062125;28;20049;-78
2022/12/31 12:45:07;;;;;;;3.80;0.73;;;14.30;87.30;;;;;;5052243;28;20049;-77
2022/12/31 12:47:34;;;;;;;3.17;0.80;;;14.30;87.20;;;;;;5042298;28;20059;-80
2022/12/31 12:50:02;;;;;;;3.28;0.80;;;14.30;87.10;;;;;;5044185;28;20761;-76
2022/12/31 12:52:48;;;;;;;4.07;0.93;;;14.30;87.00;;;;;;5036854;28;20063;-76
2022/12/31 12:55:24;;;;;;;3.92;0.85;;;14.30;87.10;;;;;;5045152;28;20056;-77
2022/12/31 12:58:00;;;;;;;4.15;0.70;;;14.30;87.00;;;;;;5049655;28;20254;-78
2022/12/31 13:00:37;;;;;;;3.13;1.00;;;14.20;87.30;;;;;;5046818;28;20130;-79
2022/12/31 13:03:28;;;;;;;3.83;0.82;;;14.20;87.50;;;;;;5066172;28;20699;-78
2022/12/31 13:06:19;;;;;;;3.53;1.00;;;14.20;87.70;;;;;;5046382;28;20060;-76
2022/12/31 13:09:00;;;;;;;3.83;0.95;;;14.20;87.90;;;;;;5066822;28;20055;-76
2022/12/31 13:11:38;;;;;;;3.88;1.10;;;14.10;88.20;;;;;;5049029;28;20164;-76
2022/12/31 13:14:15;;;;;;;4.53;1.27;;;14.10;88.50;;;;;;5047498;28;20099;-76
2022/12/31 13:16:47;;;;;;;3.88;0.80;;;14.10;88.70;;;;;;5047442;28;20792;-76
2022/12/31 13:19:19;;;;;;;4.43;2.47;;;14.10;88.60;;;;;;5048939;28;20140;-78
2022/12/31 13:21:53;;;;;;;5.90;1.17;;;14.10;88.70;;;;;;5067671;28;20096;-77
2022/12/31 13:24:43;;;;;;;3.47;0.80;;;14.10;89.00;;;;;;5047862;28;20545;-77
2022/12/31 13:27:18;;;;;;;5.57;1.57;;;14.00;89.10;;;;;;5063127;28;20052;-77
2022/12/31 13:29:47;;;;;;;2.05;0.52;;;14.00;89.30;;;;;;5045870;28;20272;-76
2022/12/31 13:32:19;;;;;;;4.82;0.65;;;14.00;89.60;;;;;;5048200;28;20561;-77
2022/12/31 13:34:51;;;;;;;2.97;0.70;;;13.90;89.70;;;;;;5048195;28;20523;-77
2022/12/31 13:37:25;;;;;;;4.18;1.10;;;13.90;90.10;;;;;;5050790;28;20056;-78
2022/12/31 13:39:59;;;;;;;4.13;1.00;;;13.90;90.30;;;;;;5049891;28;20166;-77
2022/12/31 13:42:35;;;;;;;4.10;1.13;;;13.90;90.60;;;;;;5052829;28;20272;-76